1884 Hurricane NOT_NAMED (1884247N15324)


IBTrACS version v04r00. Visit IBTrACS website for data access.
Please direct all questions to the IBTrACS Q and A forum

Storm track - Intensity - Wind Radii - Intensity Data - Source Data - All data

Summary Information

Storm ID 1884247N15324
Start Sep 2 12Z
Max Intensity 100 kt (Sep 7 00Z), 957 mb (Sep 7 12Z)
End Sep 16 18Z
ATCF IDs ,AL021884
Track status Best track data.

Storm track plot

Map of storm track

Intensity plots

Map of storm track

Radial wind information

No radial wind information for this storm


Position and Intensity Table

BASIN ISO_TIME_________ NATURE LAT LON WMO WIND WMO PRES USA WIND USA PRES MLC WIND MLC PRES
degrees north degrees east kts mb kts mb kts mb
NA 1884-09-02 12:00:00 TS 14.50 -36.50 35
NA 15:00:00 TS 14.55 -37.41 37
NA 18:00:00 TS 14.60 -38.30 40
NA 21:00:00 TS 14.65 -39.15 42
NA 1884-09-03 00:00:00 TS 13.47 -40.50 40 40 45
NA 03:00:00 TS 13.00 -41.53 40 45
NA 06:00:00 TS 12.82 -42.40 40 40 45
NA 09:00:00 TS 12.77 -43.14 40 50
NA 12:00:00 TS 13.00 -43.83 40 40 55
NA 15:00:00 TS 13.31 -44.60 40 57
NA 18:00:00 TS 13.70 -45.40 40 40 60
NA 21:00:00 TS 14.14 -46.16 40 60
NA 1884-09-04 00:00:00 TS 14.63 -46.93 40 40 60
NA 03:00:00 TS 15.17 -47.76 40 62
NA 06:00:00 TS 15.67 -48.60 40 40 65
NA 09:00:00 TS 16.02 -49.41 45 65
NA 12:00:00 TS 16.30 -50.20 50 50 65
NA 15:00:00 TS 16.55 -50.98 50 65
NA 18:00:00 TS 16.80 -51.70 50 50 65
NA 21:00:00 TS 17.12 -52.35 55 67
NA 1884-09-05 00:00:00 TS 17.43 -52.97 60 60 70
NA 03:00:00 TS 17.69 -53.61 60 70
NA 06:00:00 TS 17.93 -54.23 60 60 70
NA 09:00:00 TS 18.20 -54.85 65 72
NA 12:00:00 TS 18.43 -55.40 70 70 75
NA 15:00:00 TS 18.59 -55.83 70 75
NA 18:00:00 TS 18.73 -56.17 70 70 75
NA 21:00:00 TS 18.90 -56.48 75 77
NA 1884-09-06 00:00:00 TS 19.10 -56.77 80 80 80
NA 03:00:00 TS 19.33 -57.05 80 82
NA 06:00:00 TS 19.57 -57.30 80 80 85
NA 09:00:00 TS 19.78 -57.54 85 87
NA 12:00:00 TS 20.00 -57.70 90 90 90
NA 15:00:00 TS 20.26 -57.75 90 92
NA 18:00:00 TS 20.53 -57.70 90 90 95
NA 21:00:00 TS 20.79 -57.62 95 97
NA 1884-09-07 00:00:00 TS 21.03 -57.50 100 100 100
NA 03:00:00 TS 21.29 -57.37 100 100
NA 06:00:00 TS 21.53 -57.23 100 100 100
NA 09:00:00 TS 21.73 -57.15 100 100
NA 12:00:00 TS 21.97 -57.03 100 957 100 957 100 957
NA 15:00:00 TS 22.33 -56.77 100 100
NA 18:00:00 TS 22.73 -56.50 100 100 100
NA 21:00:00 TS 23.12 -56.34 100 100
NA 1884-09-08 00:00:00 TS 23.47 -56.20 100 100 100
NA 03:00:00 TS 23.74 -56.00 100 100
NA 06:00:00 TS 24.00 -55.80 100 100 100
NA 09:00:00 TS 24.31 -55.64 100 100
NA 12:00:00 TS 24.63 -55.47 100 100 100
NA 15:00:00 TS 24.95 -55.24 100 100
NA 18:00:00 TS 25.23 -55.00 100 100 100
NA 21:00:00 TS 25.43 -54.81 95 95
NA 1884-09-09 00:00:00 TS 25.60 -54.63 90 90 90
NA 03:00:00 TS 25.80 -54.44 90 90
NA 06:00:00 TS 26.03 -54.27 90 90 90
NA 09:00:00 TS 26.31 -54.13 90 90
NA 12:00:00 TS 26.57 -54.03 90 90 90
NA 15:00:00 TS 26.70 -53.97 90 90
NA 18:00:00 TS 26.80 -53.93 90 90 90
NA 21:00:00 TS 26.95 -53.88 90 90
NA 1884-09-10 00:00:00 TS 27.10 -53.83 90 90 90
NA 03:00:00 TS 27.22 -53.80 90 90
NA 06:00:00 TS 27.33 -53.77 90 90 90
NA 09:00:00 TS 27.45 -53.72 90 90
NA 12:00:00 TS 27.57 -53.70 90 90 90
NA 15:00:00 TS 27.70 -53.74 90 90
NA 18:00:00 TS 27.83 -53.80 90 90 90
NA 21:00:00 TS 27.94 -53.83 90 90
NA 1884-09-11 00:00:00 TS 28.03 -53.83 90 90 90
NA 03:00:00 TS 28.11 -53.82 90 87
NA 06:00:00 TS 28.20 -53.80 90 90 85
NA 09:00:00 TS 28.33 -53.82 90 85
NA 12:00:00 TS 28.47 -53.83 90 90 85
NA 15:00:00 TS 28.55 -53.82 90 85
NA 18:00:00 TS 28.63 -53.80 90 90 85
NA 21:00:00 TS 28.75 -53.77 85 82
NA 1884-09-12 00:00:00 TS 28.87 -53.73 80 80 80
NA 03:00:00 TS 28.95 -53.70 80 80
NA 06:00:00 TS 29.03 -53.67 80 80 80
NA 09:00:00 TS 29.18 -53.62 80 80
NA 12:00:00 TS 29.30 -53.53 80 80 80
NA 15:00:00 TS 29.33 -53.37 80 80
NA 18:00:00 TS 29.33 -53.17 80 80 80
NA 21:00:00 TS 29.35 -52.98 80 80
NA 1884-09-13 00:00:00 TS 29.37 -52.80 80 80 80
NA 03:00:00 TS 29.38 -52.62 80 77
NA 06:00:00 TS 29.40 -52.43 80 80 75
NA 09:00:00 TS 29.39 -52.26 80 75
NA 12:00:00 TS 29.43 -52.00 80 80 75
NA 15:00:00 TS 29.60 -51.56 80 75
NA 18:00:00 TS 29.87 -51.03 80 80 75
NA 21:00:00 TS 30.19 -50.52 80 75
NA 1884-09-14 00:00:00 TS 30.57 -49.97 80 80 75
NA 03:00:00 TS 30.90 -49.37 80 75
NA 06:00:00 TS 31.33 -48.77 80 80 75
NA 09:00:00 TS 31.95 -48.19 75 72
NA 12:00:00 TS 32.67 -47.67 70 70 70
NA 15:00:00 TS 33.32 -47.24 70 70
NA 18:00:00 TS 34.03 -46.77 70 70 70 983
NA 21:00:00 TS 34.87 -46.10 70 67
NA 1884-09-15 00:00:00 TS 35.80 -45.33 70 70 65
NA 03:00:00 TS 36.74 -44.63 70 65
NA 06:00:00 TS 37.80 -43.73 70 70 65
NA 09:00:00 TS 39.03 -42.46 65 62
NA 12:00:00 TS 40.33 -40.97 60 60 60
NA 15:00:00 TS 41.59 -39.46 60 57
NA 18:00:00 TS 42.83 -37.87 60 60 55
NA 21:00:00 TS 44.06 -36.18 55 52
NA 1884-09-16 00:00:00 TS 45.30 -34.40 50 50 50
NA 03:00:00 TS 46.63 -32.51 50 47
NA 06:00:00 TS 47.90 -30.60 50 50 45
NA 09:00:00 TS 49.10 -28.78 45 42
NA 12:00:00 TS 50.00 -27.00 40 40 40
NA 15:00:00 TS 50.40 -25.24 40 37
NA 18:00:00 TS 50.50 -23.50 40 40 35

Source Information

Agency Information
USA hurdat2-1851-2018-051019.txt:Line=4798:UNNAMED
TOKYO
CMA
HKO
NEWDELHI
REUNION
BOM
NADI
WELLINGTON
DS824
TD9636
TD9635
NEUMANN
MLC

All available IBTrACS Data

SEASON BASIN SUBBASIN ISO_TIME_________ NATURE LAT LON WMO WIND WMO PRES WMO AGENCY DIST2LAND LANDFALL IFLAG USA AGENCY USA ATCF_ID USA LAT USA LON USA STATUS USA WIND USA PRES USA SSHS MLC LAT MLC LON MLC CLASS MLC WIND MLC PRES STORM SPEED STORM DIR
Year degrees north degrees east kts mb km km degrees north degrees east kts mb 1 degrees north degrees east kts mb kts degrees
1884 NA NA 1884-09-02 12:00:00 TS 14.50 -36.50 1983 1904 _____________O -1 14.50 -36.50 TS 35 18 273
1884 NA NA 15:00:00 TS 14.55 -37.41 1911 1833 _____________P -1 14.55 -37.41 TS 37 17 273
1884 NA NA 18:00:00 TS 14.60 -38.30 1833 1773 _____________O -1 14.60 -38.30 TS 40 17 273
1884 NA NA 21:00:00 TS 14.65 -39.15 1757 1579 _____________P -1 14.65 -39.15 TS 42 24 242
1884 NA NA 1884-09-03 00:00:00 TS 13.47 -40.50 40 hurdat_atl 1571 1452 O____________O hurdat_atl AL021884 11.00 -41.50 TS 40 0 14.70 -40.00 TS 45 29 235
1884 NA NA 03:00:00 TS 13.00 -41.53 1452 1365 P____________P AL021884 11.26 -42.17 TS 40 0 14.74 -40.90 TS 45 20 251
1884 NA NA 06:00:00 TS 12.82 -42.40 40 hurdat_atl 1365 1311 O____________O hurdat_atl AL021884 11.50 -42.80 TS 40 0 14.80 -41.80 TS 45 16 262
1884 NA NA 09:00:00 TS 12.77 -43.14 1311 1275 P____________P AL021884 11.71 -43.39 TS 40 0 14.90 -42.66 TS 50 14 277
1884 NA NA 12:00:00 TS 13.00 -43.83 40 hurdat_atl 1276 1248 O____________O hurdat_atl AL021884 12.00 -44.00 TS 40 0 15.00 -43.50 TS 55 15 291
1884 NA NA 15:00:00 TS 13.31 -44.60 1248 1232 P____________P AL021884 12.44 -44.73 TS 40 0 15.05 -44.36 TS 57 17 295
1884 NA NA 18:00:00 TS 13.70 -45.40 40 hurdat_atl 1236 1222 O____________O hurdat_atl AL021884 13.00 -45.50 TS 40 0 15.10 -45.20 TS 60 17 299
1884 NA NA 21:00:00 TS 14.14 -46.16 1218 1218 P____________P AL021884 13.61 -46.24 TS 40 0 15.20 -46.01 TS 60 18 302
1884 NA NA 1884-09-04 00:00:00 TS 14.63 -46.93 40 hurdat_atl 1223 1221 O____________O hurdat_atl AL021884 14.30 -47.00 TS 40 0 15.30 -46.80 TS 60 19 304
1884 NA NA 03:00:00 TS 15.17 -47.76 1236 1231 P____________P AL021884 15.08 -47.84 TS 40 0 15.36 -47.60 TS 62 19 303
1884 NA NA 06:00:00 TS 15.67 -48.60 40 hurdat_atl 1251 1245 O____________O hurdat_atl AL021884 15.80 -48.70 TS 40 0 15.40 -48.40 HU 65 18 298
1884 NA NA 09:00:00 TS 16.02 -49.41 1246 1241 P____________P AL021884 16.32 -49.52 TS 45 0 15.42 -49.21 HU 65 17 292
1884 NA NA 12:00:00 TS 16.30 -50.20 50 hurdat_atl 1243 1239 O____________O hurdat_atl AL021884 16.70 -50.30 TS 50 0 15.50 -50.00 HU 65 16 289
1884 NA NA 15:00:00 TS 16.55 -50.98 1237 1214 P____________P AL021884 16.96 -51.09 TS 50 0 15.72 -50.75 HU 65 15 289
1884 NA NA 18:00:00 TS 16.80 -51.70 50 hurdat_atl 1214 1181 O____________O hurdat_atl AL021884 17.20 -51.80 TS 50 0 16.00 -51.50 HU 65 14 293
1884 NA NA 21:00:00 TS 17.12 -52.35 1172 1151 P____________P AL021884 17.55 -52.38 TS 55 0 16.25 -52.29 HU 67 14 298
1884 NA NA 1884-09-05 00:00:00 TS 17.43 -52.97 60 hurdat_atl 1143 1118 O____________O hurdat_atl AL021884 17.90 -52.90 TS 60 0 16.50 -53.10 HU 70 13 296
1884 NA NA 03:00:00 TS 17.69 -53.61 1118 1089 P____________P AL021884 18.16 -53.46 TS 60 0 16.75 -53.91 HU 70 13 293
1884 NA NA 06:00:00 TS 17.93 -54.23 60 hurdat_atl 1089 1070 O____________O hurdat_atl AL021884 18.40 -54.00 TS 60 0 17.00 -54.70 HU 70 13 293
1884 NA NA 09:00:00 TS 18.20 -54.85 1065 1051 P____________P AL021884 18.67 -54.53 TS 65 1 17.25 -55.50 HU 72 12 294
1884 NA NA 12:00:00 TS 18.43 -55.40 70 hurdat_atl 1051 1033 O____________O hurdat_atl AL021884 18.90 -55.00 HU 70 1 17.50 -56.20 HU 75 10 293
1884 NA NA 15:00:00 TS 18.59 -55.83 1033 1002 P____________P AL021884 19.01 -55.38 HU 70 1 17.75 -56.72 HU 75 8 292
1884 NA NA 18:00:00 TS 18.73 -56.17 70 hurdat_atl 991 960 O____________O hurdat_atl AL021884 19.10 -55.70 HU 70 1 18.00 -57.10 HU 75 7 297
1884 NA NA 21:00:00 TS 18.90 -56.48 960 929 P____________P AL021884 19.24 -56.00 HU 75 1 18.23 -57.45 HU 77 7 303
1884 NA NA 1884-09-06 00:00:00 TS 19.10 -56.77 80 hurdat_atl 929 909 O____________O hurdat_atl AL021884 19.40 -56.30 HU 80 1 18.50 -57.70 HU 80 7 308
1884 NA NA 03:00:00 TS 19.33 -57.05 910 881 P____________P AL021884 19.55 -56.65 HU 80 1 18.88 -57.85 HU 82 7 313
1884 NA NA 06:00:00 TS 19.57 -57.30 80 hurdat_atl 882 863 O____________O hurdat_atl AL021884 19.70 -57.00 HU 80 1 19.30 -57.90 HU 85 6 314
1884 NA NA 09:00:00 TS 19.78 -57.54 865 846 P____________P AL021884 19.83 -57.35 HU 85 2 19.68 -57.93 HU 87 6 319
1884 NA NA 12:00:00 TS 20.00 -57.70 90 hurdat_atl 848 848 O____________O hurdat_atl AL021884 20.00 -57.60 HU 90 2 20.00 -57.90 HU 90 5 338
1884 NA NA 15:00:00 TS 20.26 -57.75 855 855 P____________P AL021884 20.28 -57.71 HU 90 2 20.22 -57.82 HU 92 5 2
1884 NA NA 18:00:00 TS 20.53 -57.70 90 hurdat_atl 860 860 O____________O hurdat_atl AL021884 20.60 -57.70 HU 90 2 20.40 -57.70 HU 95 5 13
1884 NA NA 21:00:00 TS 20.79 -57.62 879 879 P____________P AL021884 20.86 -57.63 HU 95 2 20.64 -57.60 HU 97 5 20
1884 NA NA 1884-09-07 00:00:00 TS 21.03 -57.50 100 hurdat_atl 896 896 O____________O hurdat_atl AL021884 21.10 -57.50 HU 100 3 20.90 -57.50 MH 100 6 25
1884 NA NA 03:00:00 TS 21.29 -57.37 916 916 P____________P AL021884 21.36 -57.35 HU 100 3 21.15 -57.40 MH 100 6 26
1884 NA NA 06:00:00 TS 21.53 -57.23 100 hurdat_atl 943 943 O____________O hurdat_atl AL021884 21.60 -57.20 HU 100 3 21.40 -57.30 MH 100 5 24
1884 NA NA 09:00:00 TS 21.73 -57.15 951 951 P____________P AL021884 21.80 -57.10 HU 100 3 21.59 -57.26 MH 100 5 23
1884 NA NA 12:00:00 TS 21.97 -57.03 100 957 hurdat_atl 983 983 O____________O hurdat_atl AL021884 22.00 -57.00 HU 100 957 3 21.90 -57.10 MH 100 957 7 30
1884 NA NA 15:00:00 TS 22.33 -56.77 1015 1015 P____________P AL021884 22.23 -56.86 HU 100 3 22.53 -56.61 MH 100 9 33
1884 NA NA 18:00:00 TS 22.73 -56.50 100 hurdat_atl 1062 1062 O____________O hurdat_atl AL021884 22.50 -56.70 HU 100 3 23.20 -56.10 MH 100 9 27
1884 NA NA 21:00:00 TS 23.12 -56.34 1100 1100 P____________P AL021884 22.85 -56.56 HU 100 3 23.65 -55.90 MH 100 8 21
1884 NA NA 1884-09-08 00:00:00 TS 23.47 -56.20 100 hurdat_atl 1129 1129 O____________O hurdat_atl AL021884 23.20 -56.40 HU 100 3 24.00 -55.80 MH 100 7 26
1884 NA NA 03:00:00 TS 23.74 -56.00 1158 1158 P____________P AL021884 23.45 -56.21 HU 100 3 24.32 -55.59 MH 100 6 35
1884 NA NA 06:00:00 TS 24.00 -55.80 100 hurdat_atl 1192 1192 O____________O hurdat_atl AL021884 23.70 -56.00 HU 100 3 24.60 -55.40 MH 100 7 30
1884 NA NA 09:00:00 TS 24.31 -55.64 1227 1227 P____________P AL021884 24.03 -55.81 HU 100 3 24.86 -55.28 MH 100 7 26
1884 NA NA 12:00:00 TS 24.63 -55.47 100 hurdat_atl 1252 1252 O____________O hurdat_atl AL021884 24.40 -55.60 HU 100 3 25.10 -55.20 MH 100 7 30
1884 NA NA 15:00:00 TS 24.95 -55.24 1302 1302 P____________P AL021884 24.77 -55.31 HU 100 3 25.32 -55.09 MH 100 7 35
1884 NA NA 18:00:00 TS 25.23 -55.00 100 hurdat_atl 1331 1331 O____________O hurdat_atl AL021884 25.10 -55.00 HU 100 3 25.50 -55.00 MH 100 6 39
1884 NA NA 21:00:00 TS 25.43 -54.81 1360 1360 P____________P AL021884 25.31 -54.74 HU 95 2 25.66 -54.94 MH 95 5 42
1884 NA NA 1884-09-09 00:00:00 TS 25.60 -54.63 90 hurdat_atl 1389 1389 O____________O hurdat_atl AL021884 25.50 -54.50 HU 90 2 25.80 -54.90 HU 90 5 42
1884 NA NA 03:00:00 TS 25.80 -54.44 1418 1418 P____________P AL021884 25.74 -54.24 HU 90 2 25.94 -54.85 HU 90 5 37
1884 NA NA 06:00:00 TS 26.03 -54.27 90 hurdat_atl 1439 1439 O____________O hurdat_atl AL021884 26.00 -54.00 HU 90 2 26.10 -54.80 HU 90 6 29
1884 NA NA 09:00:00 TS 26.31 -54.13 1474 1474 P____________P AL021884 26.32 -53.82 HU 90 2 26.30 -54.75 HU 90 6 22
1884 NA NA 12:00:00 TS 26.57 -54.03 90 hurdat_atl 1501 1501 O____________O hurdat_atl AL021884 26.60 -53.70 HU 90 2 26.50 -54.70 HU 90 4 20
1884 NA NA 15:00:00 TS 26.70 -53.97 1508 1508 P____________P AL021884 26.72 -53.63 HU 90 2 26.66 -54.65 HU 90 3 21
1884 NA NA 18:00:00 TS 26.80 -53.93 90 hurdat_atl 1522 1522 O____________O hurdat_atl AL021884 26.80 -53.60 HU 90 2 26.80 -54.60 HU 90 3 18
1884 NA NA 21:00:00 TS 26.95 -53.88 1535 1529 P____________P AL021884 26.95 -53.55 HU 90 2 26.95 -54.54 HU 90 3 16
1884 NA NA 1884-09-10 00:00:00 TS 27.10 -53.83 90 hurdat_atl 1550 1550 O____________O hurdat_atl AL021884 27.10 -53.50 HU 90 2 27.10 -54.50 HU 90 3 16
1884 NA NA 03:00:00 TS 27.22 -53.80 1557 1557 P____________P AL021884 27.21 -53.45 HU 90 2 27.25 -54.49 HU 90 2 14
1884 NA NA 06:00:00 TS 27.33 -53.77 90 hurdat_atl 1563 1563 O____________O hurdat_atl AL021884 27.30 -53.40 HU 90 2 27.40 -54.50 HU 90 2 18
1884 NA NA 09:00:00 TS 27.45 -53.72 1578 1578 P____________P AL021884 27.39 -53.33 HU 90 2 27.56 -54.51 HU 90 2 14
1884 NA NA 12:00:00 TS 27.57 -53.70 90 hurdat_atl 1591 1591 O____________O hurdat_atl AL021884 27.50 -53.30 HU 90 2 27.70 -54.50 HU 90 3 354
1884 NA NA 15:00:00 TS 27.70 -53.74 1598 1590 P____________P AL021884 27.65 -53.38 HU 90 2 27.81 -54.46 HU 90 3 342
1884 NA NA 18:00:00 TS 27.83 -53.80 90 hurdat_atl 1597 1597 O____________O hurdat_atl AL021884 27.80 -53.50 HU 90 2 27.90 -54.40 HU 90 3 342
1884 NA NA 21:00:00 TS 27.94 -53.83 1604 1604 P____________P AL021884 27.91 -53.57 HU 90 2 28.01 -54.35 HU 90 2 347
1884 NA NA 1884-09-11 00:00:00 TS 28.03 -53.83 90 hurdat_atl 1611 1611 O____________O hurdat_atl AL021884 28.00 -53.60 HU 90 2 28.10 -54.30 HU 90 2 8
1884 NA NA 03:00:00 TS 28.11 -53.82 1618 1618 P____________P AL021884 28.09 -53.60 HU 90 2 28.15 -54.25 HU 87 2 15
1884 NA NA 06:00:00 TS 28.20 -53.80 90 hurdat_atl 1626 1626 O____________O hurdat_atl AL021884 28.20 -53.60 HU 90 2 28.20 -54.20 HU 85 2 0
1884 NA NA 09:00:00 TS 28.33 -53.82 1633 1633 P____________P AL021884 28.35 -53.65 HU 90 2 28.30 -54.15 HU 85 3 354
1884 NA NA 12:00:00 TS 28.47 -53.83 90 hurdat_atl 1647 1647 O____________O hurdat_atl AL021884 28.50 -53.70 HU 90 2 28.40 -54.10 HU 85 2 354
1884 NA NA 15:00:00 TS 28.55 -53.82 1655 1655 P____________P AL021884 28.60 -53.72 HU 90 2 28.46 -54.04 HU 85 2 15
1884 NA NA 18:00:00 TS 28.63 -53.80 90 hurdat_atl 1655 1655 O____________O hurdat_atl AL021884 28.70 -53.70 HU 90 2 28.50 -54.00 HU 85 2 12
1884 NA NA 21:00:00 TS 28.75 -53.77 1669 1669 P____________P AL021884 28.85 -53.66 HU 85 2 28.55 -53.99 HU 82 2 14
1884 NA NA 1884-09-12 00:00:00 TS 28.87 -53.73 80 hurdat_atl 1684 1684 O____________O hurdat_atl AL021884 29.00 -53.60 HU 80 1 28.60 -54.00 HU 80 2 16
1884 NA NA 03:00:00 TS 28.95 -53.70 1684 1684 P____________P AL021884 29.10 -53.56 HU 80 1 28.64 -54.00 HU 80 2 20
1884 NA NA 06:00:00 TS 29.03 -53.67 80 hurdat_atl 1691 1691 O____________O hurdat_atl AL021884 29.20 -53.50 HU 80 1 28.70 -54.00 HU 80 2 18
1884 NA NA 09:00:00 TS 29.18 -53.62 1713 1713 P____________P AL021884 29.36 -53.42 HU 80 1 28.81 -54.04 HU 80 3 23
1884 NA NA 12:00:00 TS 29.30 -53.53 80 hurdat_atl 1728 1728 O____________O hurdat_atl AL021884 29.50 -53.30 HU 80 1 28.90 -54.00 HU 80 3 55
1884 NA NA 15:00:00 TS 29.33 -53.37 1735 1735 P____________P AL021884 29.57 -53.16 HU 80 1 28.87 -53.79 HU 80 3 84
1884 NA NA 18:00:00 TS 29.33 -53.17 80 hurdat_atl 1750 1750 O____________O hurdat_atl AL021884 29.60 -53.00 HU 80 1 28.80 -53.50 HU 80 3 87
1884 NA NA 21:00:00 TS 29.35 -52.98 1764 1764 P____________P AL021884 29.65 -52.85 HU 80 1 28.75 -53.25 HU 80 3 84
1884 NA NA 1884-09-13 00:00:00 TS 29.37 -52.80 80 hurdat_atl 1786 1786 O____________O hurdat_atl AL021884 29.70 -52.70 HU 80 1 28.70 -53.00 HU 80 3 84
1884 NA NA 03:00:00 TS 29.38 -52.62 1801 1801 P____________P AL021884 29.75 -52.56 HU 80 1 28.65 -52.75 HU 77 3 84
1884 NA NA 06:00:00 TS 29.40 -52.43 80 hurdat_atl 1816 1816 O____________O hurdat_atl AL021884 29.80 -52.40 HU 80 1 28.60 -52.50 HU 75 3 89
1884 NA NA 09:00:00 TS 29.39 -52.26 1823 1823 P____________P AL021884 29.84 -52.24 HU 80 1 28.47 -52.31 HU 75 4 85
1884 NA NA 12:00:00 TS 29.43 -52.00 80 hurdat_atl 1846 1846 O____________O hurdat_atl AL021884 29.90 -52.00 HU 80 1 28.50 -52.00 HU 75 6 71
1884 NA NA 15:00:00 TS 29.60 -51.56 1890 1878 P____________P AL021884 29.96 -51.64 HU 80 1 28.88 -51.40 HU 75 9 63
1884 NA NA 18:00:00 TS 29.87 -51.03 80 hurdat_atl 1869 1839 O____________O hurdat_atl AL021884 30.10 -51.20 HU 80 1 29.40 -50.70 HU 75 11 57
1884 NA NA 21:00:00 TS 30.19 -50.52 1840 1812 P____________P AL021884 30.36 -50.73 HU 80 1 29.85 -50.09 HU 75 12 53
1884 NA NA 1884-09-14 00:00:00 TS 30.57 -49.97 80 hurdat_atl 1802 1777 O____________O hurdat_atl AL021884 30.70 -50.20 HU 80 1 30.30 -49.50 HU 75 12 54
1884 NA NA 03:00:00 TS 30.90 -49.37 1777 1744 P____________P AL021884 30.98 -49.60 HU 80 1 30.76 -48.91 HU 75 13 53
1884 NA NA 06:00:00 TS 31.33 -48.77 80 hurdat_atl 1744 1688 O____________O hurdat_atl AL021884 31.40 -49.00 HU 80 1 31.20 -48.30 HU 75 15 44
1884 NA NA 09:00:00 TS 31.95 -48.19 1679 1626 P____________P AL021884 32.15 -48.49 HU 75 1 31.56 -47.60 HU 72 16 35
1884 NA NA 12:00:00 TS 32.67 -47.67 70 hurdat_atl 1615 1561 O____________O hurdat_atl AL021884 33.00 -48.00 HU 70 1 32.00 -47.00 HU 70 16 31
1884 NA NA 15:00:00 TS 33.32 -47.24 1564 1501 P____________P AL021884 33.63 -47.51 HU 70 1 32.70 -46.69 HU 70 16 29
1884 NA NA 18:00:00 TS 34.03 -46.77 70 hurdat_atl 1501 1437 O____________O hurdat_atl AL021884 34.30 -46.90 HU 70 1 33.50 -46.50 HU 70 983 18 31
1884 NA NA 21:00:00 TS 34.87 -46.10 1430 1374 P____________P AL021884 35.20 -46.00 HU 70 1 34.21 -46.30 HU 67 21 34
1884 NA NA 1884-09-15 00:00:00 TS 35.80 -45.33 70 hurdat_atl 1368 1305 O____________O hurdat_atl AL021884 36.20 -45.00 HU 70 1 35.00 -46.00 HU 65 22 33
1884 NA NA 03:00:00 TS 36.74 -44.63 1309 1248 P____________P AL021884 37.17 -44.14 HU 70 1 35.88 -45.60 HU 65 24 33
1884 NA NA 06:00:00 TS 37.80 -43.73 70 hurdat_atl 1249 1210 O____________O hurdat_atl AL021884 38.20 -43.20 HU 70 1 37.00 -44.80 HU 65 29 37
1884 NA NA 09:00:00 TS 39.03 -42.46 1210 1195 P____________P AL021884 39.33 -42.04 HU 65 1 38.44 -43.31 HU 62 33 40
1884 NA NA 12:00:00 TS 40.33 -40.97 60 hurdat_atl 1202 1199 O____________O hurdat_atl AL021884 40.50 -40.70 TS 60 0 40.00 -41.50 TS 60 34 42
1884 NA NA 15:00:00 TS 41.59 -39.46 1215 1215 P____________P AL021884 41.63 -39.25 TS 60 0 41.49 -39.88 TS 57 34 43
1884 NA NA 18:00:00 TS 42.83 -37.87 60 hurdat_atl 1258 1258 O____________O hurdat_atl AL021884 42.80 -37.70 TS 60 0 42.90 -38.20 TS 55 34 44
1884 NA NA 21:00:00 TS 44.06 -36.18 1318 1318 P____________P AL021884 44.02 -36.10 TS 55 0 44.12 -36.33 TS 52 35 45
1884 NA NA 1884-09-16 00:00:00 TS 45.30 -34.40 50 hurdat_atl 1407 1407 O____________O hurdat_atl AL021884 45.30 -34.40 TS 50 0 45.30 -34.40 TS 50 36 45
1884 NA NA 03:00:00 TS 46.63 -32.51 1515 1509 P____________P AL021884 46.63 -32.52 TS 50 0 46.62 -32.48 TS 47 37 45
1884 NA NA 06:00:00 TS 47.90 -30.60 50 hurdat_atl 1498 1334 O____________O hurdat_atl AL021884 47.90 -30.60 TS 50 0 47.90 -30.60 TS 45 35 45
1884 NA NA 09:00:00 TS 49.10 -28.78 1323 1175 P____________P AL021884 49.10 -28.78 TS 45 0 49.10 -28.78 TS 42 32 48
1884 NA NA 12:00:00 TS 50.00 -27.00 40 hurdat_atl 1168 1040 O____________O hurdat_atl AL021884 50.00 -27.00 TS 40 0 50.00 -27.00 TS 40 26 60
1884 NA NA 15:00:00 TS 50.40 -25.24 1033 922 P____________P AL021884 50.40 -25.24 TS 40 0 50.40 -25.24 TS 37 23 77
1884 NA NA 18:00:00 TS 50.50 -23.50 40 hurdat_atl 915 O____________O hurdat_atl AL021884 50.50 -23.50 TS 40 0 50.50 -23.50 TS 35 22 85